createdAt,value
2023-03-07T00:00:33.829Z,967.34
2023-03-07T00:01:33.809Z,967.36
2023-03-07T00:02:33.832Z,967.32
2023-03-07T00:03:33.816Z,967.34
2023-03-07T00:04:33.764Z,967.33
2023-03-07T00:05:33.753Z,967.34
2023-03-07T00:06:33.728Z,967.30
2023-03-07T00:07:33.714Z,967.28
2023-03-07T00:08:33.704Z,967.25
2023-03-07T00:09:33.694Z,967.26
2023-03-07T00:10:33.681Z,967.24
2023-03-07T00:11:33.689Z,967.26
2023-03-07T00:12:33.672Z,967.25
2023-03-07T00:13:33.639Z,967.29
2023-03-07T00:14:33.689Z,967.24
2023-03-07T00:15:33.638Z,967.19
2023-03-07T00:16:33.595Z,967.25
2023-03-07T00:17:33.599Z,967.20
2023-03-07T00:18:33.598Z,967.27
2023-03-07T00:19:33.563Z,967.23
2023-03-07T00:20:33.551Z,967.24
2023-03-07T00:21:33.540Z,967.21
2023-03-07T00:22:33.526Z,967.19
2023-03-07T00:23:33.520Z,967.19
2023-03-07T00:24:33.514Z,967.12
2023-03-07T00:25:33.486Z,967.19
2023-03-07T00:26:33.478Z,967.15
2023-03-07T00:27:33.468Z,967.15
2023-03-07T00:28:33.452Z,967.14
2023-03-07T00:29:33.449Z,967.11
2023-03-07T00:30:33.458Z,967.12
2023-03-07T00:31:40.938Z,967.06
2023-03-07T00:32:33.414Z,967.09
2023-03-07T00:33:33.361Z,967.08
2023-03-07T00:34:33.366Z,967.05
2023-03-07T00:35:33.375Z,967.01
2023-03-07T00:36:33.344Z,967.08
2023-03-07T00:37:33.325Z,967.00
2023-03-07T00:38:33.321Z,967.10
2023-03-07T00:39:39.477Z,967.08
2023-03-07T00:40:33.301Z,967.07
2023-03-07T00:41:33.289Z,967.09
2023-03-07T00:42:33.257Z,967.03
2023-03-07T00:43:33.250Z,967.04
2023-03-07T00:44:33.245Z,967.02
2023-03-07T00:45:33.268Z,966.98
2023-03-07T00:46:33.203Z,966.98
2023-03-07T00:47:33.203Z,966.93
2023-03-07T00:48:33.185Z,966.90
2023-03-07T00:49:33.184Z,966.93
2023-03-07T00:50:33.180Z,966.93
2023-03-07T00:51:33.161Z,966.92
2023-03-07T00:52:33.132Z,966.92
2023-03-07T00:53:33.128Z,966.87
2023-03-07T00:54:33.103Z,966.84
2023-03-07T00:55:33.104Z,966.85
2023-03-07T00:56:33.090Z,966.86
2023-03-07T00:57:33.064Z,966.82
2023-03-07T00:58:33.053Z,966.84
2023-03-07T00:59:33.033Z,966.81
2023-03-07T01:00:33.045Z,966.90
2023-03-07T01:01:33.034Z,966.75
2023-03-07T01:02:33.012Z,966.81
2023-03-07T01:03:32.995Z,966.79
2023-03-07T01:04:33.054Z,966.72
2023-03-07T01:05:32.972Z,966.73
2023-03-07T01:06:32.961Z,966.66
2023-03-07T01:07:32.957Z,966.75
2023-03-07T01:08:32.918Z,966.65
2023-03-07T01:09:32.912Z,966.72
2023-03-07T01:10:32.921Z,966.67
2023-03-07T01:11:32.895Z,966.62
2023-03-07T01:12:32.866Z,966.67
2023-03-07T01:13:32.858Z,966.61
2023-03-07T01:14:32.846Z,966.56
2023-03-07T01:15:32.871Z,966.58
2023-03-07T01:16:33.051Z,966.59
2023-03-07T01:17:32.834Z,966.56
2023-03-07T01:18:32.800Z,966.54
2023-03-07T01:19:32.810Z,966.57
2023-03-07T01:20:32.809Z,966.50
2023-03-07T01:21:32.774Z,966.45
2023-03-07T01:22:32.777Z,966.46
2023-03-07T01:23:32.777Z,966.44
2023-03-07T01:24:32.720Z,966.48
2023-03-07T01:25:32.727Z,966.43
2023-03-07T01:26:32.696Z,966.49
2023-03-07T01:27:32.704Z,966.45
2023-03-07T01:28:32.676Z,966.45
2023-03-07T01:29:32.660Z,966.40
2023-03-07T01:30:32.648Z,966.31
2023-03-07T01:31:32.839Z,966.37
2023-03-07T01:32:32.675Z,966.38
2023-03-07T01:33:32.598Z,966.45
2023-03-07T01:34:32.584Z,966.34
2023-03-07T01:35:32.684Z,966.30
2023-03-07T01:36:32.622Z,966.39
2023-03-07T01:37:32.565Z,966.36
2023-03-07T01:38:32.542Z,966.29
2023-03-07T01:39:32.526Z,966.32
2023-03-07T01:40:32.527Z,966.29
2023-03-07T01:41:32.522Z,966.27
2023-03-07T01:42:32.495Z,966.30
2023-03-07T01:43:32.476Z,966.24
2023-03-07T01:44:32.472Z,966.24
2023-03-07T01:45:32.512Z,966.19
2023-03-07T01:46:32.472Z,966.13
2023-03-07T01:47:32.425Z,966.18
2023-03-07T01:48:32.428Z,966.17
2023-03-07T01:49:32.501Z,966.17
2023-03-07T01:50:32.394Z,966.19
2023-03-07T01:51:32.382Z,966.17
2023-03-07T01:52:32.381Z,966.07
2023-03-07T01:53:32.364Z,966.08
2023-03-07T01:54:32.328Z,966.07
2023-03-07T01:55:32.339Z,966.03
2023-03-07T01:56:32.321Z,966.03
2023-03-07T01:57:32.323Z,965.99
2023-03-07T01:58:32.329Z,966.02
2023-03-07T01:59:32.292Z,965.99
2023-03-07T02:00:32.270Z,966.00
2023-03-07T02:01:32.341Z,966.07
2023-03-07T02:02:32.243Z,966.01
2023-03-07T02:03:32.224Z,966.01
2023-03-07T02:04:32.250Z,965.96
2023-03-07T02:05:32.198Z,965.93
2023-03-07T02:06:32.181Z,965.97
2023-03-07T02:07:32.192Z,965.92
2023-03-07T02:08:32.161Z,965.90
2023-03-07T02:09:32.138Z,965.90
2023-03-07T02:10:32.141Z,965.93
2023-03-07T02:11:32.135Z,965.87
2023-03-07T02:12:32.126Z,965.87
2023-03-07T02:13:32.100Z,965.82
2023-03-07T02:14:32.117Z,965.85
2023-03-07T02:15:32.061Z,965.88
2023-03-07T02:16:32.080Z,965.87
2023-03-07T02:17:32.030Z,965.88
2023-03-07T02:18:32.042Z,965.84
2023-03-07T02:19:32.027Z,965.89
2023-03-07T02:20:32.007Z,965.89
2023-03-07T02:21:31.996Z,965.74
2023-03-07T02:22:31.972Z,965.83
2023-03-07T02:23:31.967Z,965.78
2023-03-07T02:24:31.973Z,965.75
2023-03-07T02:25:31.944Z,965.80
2023-03-07T02:26:31.956Z,965.84
2023-03-07T02:27:31.914Z,965.74
2023-03-07T02:28:31.922Z,965.69
2023-03-07T02:29:31.874Z,965.76
2023-03-07T02:30:31.894Z,965.69
2023-03-07T02:31:31.862Z,965.76
2023-03-07T02:32:31.895Z,965.78
2023-03-07T02:33:31.828Z,965.79
2023-03-07T02:34:31.835Z,965.77
2023-03-07T02:35:31.857Z,965.75
2023-03-07T02:36:31.835Z,965.89
2023-03-07T02:37:31.775Z,965.82
2023-03-07T02:38:31.780Z,965.77
2023-03-07T02:39:31.759Z,965.75
2023-03-07T02:40:31.757Z,965.80
2023-03-07T02:41:31.753Z,965.83
2023-03-07T02:42:31.724Z,965.84
2023-03-07T02:43:31.703Z,965.85
2023-03-07T02:44:31.738Z,965.71
2023-03-07T02:45:31.684Z,965.82
2023-03-07T02:46:31.765Z,965.80
2023-03-07T02:47:31.656Z,965.81
2023-03-07T02:48:31.624Z,965.83
2023-03-07T02:49:31.634Z,965.83
2023-03-07T02:50:31.667Z,965.76
2023-03-07T02:51:31.632Z,965.79
2023-03-07T02:52:31.593Z,965.78
2023-03-07T02:53:31.589Z,965.80
2023-03-07T02:54:31.593Z,965.78
2023-03-07T02:55:31.553Z,965.74
2023-03-07T02:56:31.567Z,965.84
2023-03-07T02:57:31.527Z,965.81
2023-03-07T02:58:31.514Z,965.76
2023-03-07T02:59:31.512Z,965.78
2023-03-07T03:00:31.501Z,965.78
2023-03-07T03:01:31.505Z,965.76
2023-03-07T03:02:31.463Z,965.80
2023-03-07T03:03:31.475Z,965.76
2023-03-07T03:04:31.459Z,965.74
2023-03-07T03:05:31.424Z,965.78
2023-03-07T03:06:31.426Z,965.77
2023-03-07T03:07:31.407Z,965.74
2023-03-07T03:08:31.398Z,965.72
2023-03-07T03:09:31.366Z,965.77
2023-03-07T03:10:31.374Z,965.78
2023-03-07T03:11:31.360Z,965.74
2023-03-07T03:12:31.343Z,965.77
2023-03-07T03:13:31.327Z,965.77
2023-03-07T03:14:31.300Z,965.75
2023-03-07T03:15:31.320Z,965.70
2023-03-07T03:16:31.371Z,965.75
2023-03-07T03:17:31.290Z,965.76
2023-03-07T03:18:31.280Z,965.73
2023-03-07T03:19:31.245Z,965.75
2023-03-07T03:20:31.261Z,965.67
2023-03-07T03:21:31.262Z,965.69
2023-03-07T03:22:31.210Z,965.65
2023-03-07T03:23:31.199Z,965.72
2023-03-07T03:24:31.184Z,965.70
2023-03-07T03:25:31.161Z,965.73
2023-03-07T03:26:31.181Z,965.73
2023-03-07T03:27:31.144Z,965.68
2023-03-07T03:28:31.132Z,965.65
2023-03-07T03:29:31.111Z,965.67
2023-03-07T03:30:31.112Z,965.72
2023-03-07T03:31:31.192Z,965.72
2023-03-07T03:32:31.163Z,965.71
2023-03-07T03:33:31.077Z,965.73
2023-03-07T03:34:31.056Z,965.71
2023-03-07T03:35:31.103Z,965.72
2023-03-07T03:36:31.048Z,965.67
2023-03-07T03:37:31.028Z,965.63
2023-03-07T03:38:30.999Z,965.66
2023-03-07T03:39:31.015Z,965.61
2023-03-07T03:40:30.970Z,965.63
2023-03-07T03:41:30.970Z,965.63
2023-03-07T03:42:30.952Z,965.62
2023-03-07T03:43:30.929Z,965.60
2023-03-07T03:44:30.931Z,965.60
2023-03-07T03:45:30.902Z,965.63
2023-03-07T03:46:30.934Z,965.58
2023-03-07T03:47:30.900Z,965.53
2023-03-07T03:48:30.886Z,965.58
2023-03-07T03:49:30.859Z,965.55
2023-03-07T04:02:59.701Z,965.43
2023-03-07T04:03:59.573Z,965.42
2023-03-07T04:04:59.529Z,965.39
2023-03-07T04:05:59.525Z,965.45
2023-03-07T04:06:59.507Z,965.41
2023-03-07T04:07:59.507Z,965.43
2023-03-07T04:08:59.493Z,965.39
2023-03-07T04:09:59.507Z,965.40
2023-03-07T04:10:59.462Z,965.37
2023-03-07T04:11:59.465Z,965.40
2023-03-07T04:12:59.434Z,965.41
2023-03-07T04:13:59.441Z,965.36
2023-03-07T04:14:59.401Z,965.34
2023-03-07T04:15:59.403Z,965.37
2023-03-07T04:16:59.385Z,965.31
2023-03-07T04:17:59.367Z,965.29
2023-03-07T04:18:59.370Z,965.33
2023-03-07T04:19:59.357Z,965.27
2023-03-07T04:20:59.352Z,965.18
2023-03-07T04:21:59.304Z,965.21
2023-03-07T04:22:59.313Z,965.24
2023-03-07T04:23:59.296Z,965.26
2023-03-07T04:24:59.342Z,965.25
2023-03-07T04:25:59.332Z,965.23
2023-03-07T04:26:59.266Z,965.26
2023-03-07T04:27:59.231Z,965.21
2023-03-07T04:28:59.244Z,965.27
2023-03-07T04:29:59.204Z,965.24
2023-03-07T04:30:59.207Z,965.27
2023-03-07T04:31:59.216Z,965.18
2023-03-07T04:32:59.164Z,965.20
2023-03-07T04:33:59.177Z,965.24
2023-03-07T04:34:59.177Z,965.19
2023-03-07T04:35:59.151Z,965.20
2023-03-07T04:36:59.292Z,965.10
2023-03-07T04:37:59.104Z,965.11
2023-03-07T04:38:59.098Z,965.20
2023-03-07T04:39:59.097Z,965.25
2023-03-07T04:40:59.098Z,965.22
2023-03-07T04:41:59.091Z,965.26
2023-03-07T04:42:59.025Z,965.11
2023-03-07T04:43:59.142Z,965.16
2023-03-07T04:44:59.002Z,965.17
2023-03-07T04:45:59.200Z,965.15
2023-03-07T04:46:59.000Z,965.16
2023-03-07T04:47:59.004Z,965.14
2023-03-07T04:48:58.949Z,965.14
2023-03-07T04:49:58.938Z,965.13
2023-03-07T04:50:58.947Z,965.11
2023-03-07T04:51:58.927Z,965.15
2023-03-07T04:52:58.906Z,965.14
2023-03-07T04:53:58.935Z,965.07
2023-03-07T04:54:58.897Z,965.17
2023-03-07T04:55:58.878Z,965.13
2023-03-07T04:56:58.888Z,965.12
2023-03-07T04:57:58.848Z,965.15
2023-03-07T04:58:58.827Z,965.17
2023-03-07T04:59:58.833Z,965.12
2023-03-07T05:00:58.875Z,965.09
2023-03-07T05:01:58.806Z,965.15
2023-03-07T05:02:58.798Z,965.12
2023-03-07T05:03:58.835Z,965.09
2023-03-07T05:04:58.776Z,965.10
2023-03-07T05:05:58.764Z,965.14
2023-03-07T05:06:58.744Z,965.04
2023-03-07T05:07:58.742Z,965.06
2023-03-07T05:08:58.778Z,965.12
2023-03-07T05:09:58.712Z,965.03
2023-03-07T05:10:58.686Z,965.10
2023-03-07T05:11:58.674Z,965.10
2023-03-07T05:12:58.691Z,965.04
2023-03-07T05:13:58.648Z,965.05
2023-03-07T05:14:58.650Z,965.13
2023-03-07T05:15:58.648Z,965.08
2023-03-07T05:16:58.605Z,965.08
2023-03-07T05:17:58.618Z,965.08
2023-03-07T05:18:58.577Z,965.14
2023-03-07T05:19:58.570Z,965.14
2023-03-07T05:20:58.564Z,965.08
2023-03-07T05:21:58.550Z,965.13
2023-03-07T05:22:58.548Z,965.10
2023-03-07T05:23:58.524Z,965.09
2023-03-07T05:24:58.520Z,965.05
2023-03-07T05:25:58.489Z,965.03
2023-03-07T05:26:58.491Z,965.02
2023-03-07T05:27:58.484Z,965.07
2023-03-07T05:28:58.457Z,965.06
2023-03-07T05:29:58.439Z,965.08
2023-03-07T05:30:58.466Z,965.10
2023-03-07T05:31:58.454Z,964.96
2023-03-07T05:32:58.421Z,965.06
2023-03-07T05:33:58.406Z,965.01
2023-03-07T05:34:58.376Z,965.05
2023-03-07T05:35:58.383Z,965.01
2023-03-07T05:36:58.399Z,964.99
2023-03-07T05:37:58.335Z,965.00
2023-03-07T05:38:58.335Z,965.07
2023-03-07T05:39:58.310Z,965.04
2023-03-07T05:40:58.306Z,965.01
2023-03-07T05:41:58.296Z,965.03
2023-03-07T05:42:58.286Z,964.97
2023-03-07T05:43:58.274Z,964.98
2023-03-07T05:44:58.261Z,964.98
2023-03-07T05:45:58.338Z,965.01
2023-03-07T05:46:58.214Z,964.96
2023-03-07T05:47:58.219Z,965.01
2023-03-07T05:48:58.198Z,964.95
2023-03-07T05:49:58.176Z,964.98
2023-03-07T05:50:58.169Z,964.95
2023-03-07T05:51:58.160Z,964.93
2023-03-07T05:52:58.149Z,964.88
2023-03-07T05:53:58.136Z,964.88
2023-03-07T05:54:58.128Z,964.90
2023-03-07T05:55:58.119Z,964.91
2023-03-07T05:56:58.108Z,964.86
2023-03-07T05:57:58.096Z,964.87
2023-03-07T05:58:58.082Z,964.84
2023-03-07T05:59:58.062Z,964.86
2023-03-07T06:00:58.048Z,964.88
2023-03-07T06:01:58.038Z,964.83
2023-03-07T06:02:58.084Z,964.86
2023-03-07T06:03:58.031Z,964.86
2023-03-07T06:04:57.988Z,964.82
2023-03-07T06:05:57.969Z,964.76
2023-03-07T06:06:57.957Z,964.78
2023-03-07T06:07:57.962Z,964.91
2023-03-07T06:08:57.936Z,964.90
2023-03-07T06:09:57.927Z,964.86
2023-03-07T06:10:57.911Z,964.84
2023-03-07T06:11:57.891Z,964.87
2023-03-07T06:12:57.899Z,964.83
2023-03-07T06:13:57.877Z,964.88
2023-03-07T06:14:57.867Z,964.82
2023-03-07T06:15:57.913Z,964.80
2023-03-07T06:16:57.869Z,964.82
2023-03-07T06:17:57.845Z,964.94
2023-03-07T06:18:57.813Z,964.88
2023-03-07T06:19:57.808Z,964.88
2023-03-07T06:20:57.792Z,964.86
2023-03-07T06:21:57.785Z,964.90
2023-03-07T06:22:57.777Z,964.90
2023-03-07T06:23:57.754Z,964.90
2023-03-07T06:24:57.756Z,964.88
2023-03-07T06:25:57.718Z,964.88
2023-03-07T06:26:57.707Z,964.90
2023-03-07T06:27:57.701Z,964.92
2023-03-07T06:28:57.717Z,964.92
2023-03-07T06:29:57.685Z,964.95
2023-03-07T06:30:57.676Z,964.89
2023-03-07T06:31:57.638Z,964.96
2023-03-07T06:32:57.621Z,964.91
2023-03-07T06:33:57.787Z,964.93
2023-03-07T06:34:57.623Z,964.98
2023-03-07T06:35:57.629Z,965.00
2023-03-07T06:36:57.580Z,964.98
2023-03-07T06:37:57.563Z,964.91
2023-03-07T06:38:57.609Z,964.98
2023-03-07T06:39:57.570Z,964.98
2023-03-07T06:40:57.610Z,965.01
2023-03-07T06:41:57.555Z,964.91
2023-03-07T06:42:57.573Z,964.98
2023-03-07T06:43:57.511Z,964.91
2023-03-07T06:44:57.531Z,965.05
2023-03-07T06:45:57.512Z,964.99
2023-03-07T06:46:57.450Z,964.95
2023-03-07T06:47:57.466Z,965.02
2023-03-07T06:48:57.450Z,964.94
2023-03-07T06:49:57.451Z,964.96
2023-03-07T06:50:57.420Z,964.93
2023-03-07T06:51:57.392Z,964.96
2023-03-07T06:52:57.399Z,964.94
2023-03-07T06:53:57.372Z,964.92
2023-03-07T06:54:57.360Z,964.94
2023-03-07T06:55:57.377Z,964.98
2023-03-07T06:56:57.332Z,964.94
2023-03-07T06:57:57.307Z,964.91
2023-03-07T06:58:57.348Z,964.94
2023-03-07T06:59:57.298Z,964.96
2023-03-07T07:00:57.293Z,965.00
2023-03-07T07:01:57.389Z,964.96
2023-03-07T07:02:57.418Z,964.91
2023-03-07T07:03:57.253Z,964.94
2023-03-07T07:04:59.059Z,964.99
2023-03-07T07:05:57.201Z,964.91
2023-03-07T07:06:57.215Z,964.98
2023-03-07T07:07:57.213Z,964.98
2023-03-07T07:08:57.224Z,964.88
2023-03-07T07:09:57.160Z,964.89
2023-03-07T07:10:57.140Z,964.93
2023-03-07T07:11:57.156Z,964.97
2023-03-07T07:12:57.161Z,964.88
2023-03-07T07:13:57.156Z,964.86
2023-03-07T07:14:57.121Z,964.86
2023-03-07T07:15:57.081Z,964.93
2023-03-07T07:16:57.073Z,964.92
2023-03-07T07:17:57.058Z,964.82
2023-03-07T07:18:57.080Z,964.87
2023-03-07T07:19:57.080Z,964.84
2023-03-07T07:20:57.010Z,964.86
2023-03-07T07:21:57.034Z,964.86
2023-03-07T07:22:57.004Z,964.92
2023-03-07T07:23:56.973Z,964.85
2023-03-07T07:24:56.975Z,964.82
2023-03-07T07:25:56.960Z,964.90
2023-03-07T07:26:56.963Z,964.91
2023-03-07T07:27:56.929Z,964.89
2023-03-07T07:28:56.898Z,964.88
2023-03-07T07:29:56.918Z,964.97
2023-03-07T07:30:56.899Z,964.91
2023-03-07T07:31:57.046Z,964.95
2023-03-07T07:32:57.036Z,964.91
2023-03-07T07:33:56.850Z,964.93
2023-03-07T07:34:56.915Z,964.95
2023-03-07T07:35:56.853Z,964.88
2023-03-07T07:36:56.864Z,964.91
2023-03-07T07:37:56.781Z,964.93
2023-03-07T07:38:56.783Z,964.93
2023-03-07T07:39:56.814Z,964.90
2023-03-07T07:40:56.790Z,964.89
2023-03-07T07:41:56.733Z,964.92
2023-03-07T07:42:56.734Z,964.90
2023-03-07T07:43:56.728Z,964.92
2023-03-07T07:44:56.742Z,964.91
2023-03-07T07:45:56.763Z,964.92
2023-03-07T07:46:56.694Z,964.99
2023-03-07T07:47:56.690Z,964.90
2023-03-07T07:48:56.675Z,964.96
2023-03-07T07:49:56.645Z,964.79
2023-03-07T07:50:56.666Z,964.88
2023-03-07T07:51:56.645Z,964.86
2023-03-07T07:52:56.626Z,964.92
2023-03-07T07:53:56.634Z,964.88
2023-03-07T07:54:56.598Z,964.87
2023-03-07T07:55:56.617Z,964.80
2023-03-07T07:56:56.567Z,964.92
2023-03-07T07:57:56.561Z,964.85
2023-03-07T07:58:56.547Z,964.87
2023-03-07T07:59:56.538Z,964.82
2023-03-07T08:00:56.509Z,964.90
2023-03-07T08:01:56.499Z,964.84
2023-03-07T08:02:56.500Z,964.76
2023-03-07T08:03:56.509Z,964.84
2023-03-07T08:04:56.478Z,964.89
2023-03-07T08:05:56.448Z,964.83
2023-03-07T08:06:56.458Z,964.87
2023-03-07T08:07:56.443Z,964.81
2023-03-07T08:08:56.437Z,964.88
2023-03-07T08:09:56.400Z,964.84
2023-03-07T08:10:56.388Z,964.77
2023-03-07T08:11:56.357Z,964.80
2023-03-07T08:12:56.359Z,964.85
2023-03-07T08:13:56.377Z,964.83
2023-03-07T08:14:56.351Z,964.77
2023-03-07T08:15:56.353Z,964.78
2023-03-07T08:16:56.336Z,964.75
2023-03-07T08:17:56.313Z,964.86
2023-03-07T08:18:56.302Z,964.84
2023-03-07T08:19:56.301Z,964.75
2023-03-07T08:20:56.279Z,964.76
2023-03-07T08:21:56.243Z,964.80
2023-03-07T08:22:56.242Z,964.81
2023-03-07T08:23:56.274Z,964.72
2023-03-07T08:24:56.211Z,964.76
2023-03-07T08:25:56.191Z,964.79
2023-03-07T08:26:56.221Z,964.71
2023-03-07T08:27:56.195Z,964.71
2023-03-07T08:28:56.152Z,964.82
2023-03-07T08:29:56.144Z,964.67
2023-03-07T08:30:56.148Z,964.66
2023-03-07T08:31:56.102Z,964.63
2023-03-07T08:32:56.126Z,964.63
2023-03-07T08:33:56.095Z,964.65
2023-03-07T08:34:56.112Z,964.70
2023-03-07T08:35:56.093Z,964.72
2023-03-07T08:36:56.055Z,964.66
2023-03-07T08:37:56.048Z,964.68
2023-03-07T08:38:56.035Z,964.73
2023-03-07T08:39:56.030Z,964.62
2023-03-07T08:40:56.023Z,964.68
2023-03-07T08:41:55.975Z,964.66
2023-03-07T08:42:55.965Z,964.58
2023-03-07T08:43:55.977Z,964.63
2023-03-07T08:44:55.985Z,964.66
2023-03-07T08:45:56.029Z,964.59
2023-03-07T08:46:55.915Z,964.62
2023-03-07T08:47:55.960Z,964.64
2023-03-07T08:48:55.889Z,964.65
2023-03-07T08:49:55.930Z,964.62
2023-03-07T08:50:55.879Z,964.54
2023-03-07T08:51:55.885Z,964.60
2023-03-07T08:52:55.838Z,964.63
2023-03-07T08:53:55.846Z,964.68
2023-03-07T08:54:55.834Z,964.59
2023-03-07T08:55:55.813Z,964.63
2023-03-07T08:56:55.813Z,964.57
2023-03-07T08:57:55.774Z,964.63
2023-03-07T08:58:55.764Z,964.56
2023-03-07T08:59:55.762Z,964.64
2023-03-07T09:00:55.741Z,964.57
2023-03-07T09:01:55.794Z,964.59
2023-03-07T09:02:55.721Z,964.52
2023-03-07T09:03:55.690Z,964.54
2023-03-07T09:04:55.764Z,964.55
2023-03-07T09:05:55.677Z,964.56
2023-03-07T09:06:55.656Z,964.55
2023-03-07T09:07:55.625Z,964.61
2023-03-07T09:08:55.655Z,964.59
2023-03-07T09:09:55.630Z,964.55
2023-03-07T09:10:55.605Z,964.58
2023-03-07T09:11:55.592Z,964.53
2023-03-07T09:12:55.585Z,964.60
2023-03-07T09:13:55.565Z,964.57
2023-03-07T09:14:55.567Z,964.51
2023-03-07T09:15:55.576Z,964.48
2023-03-07T09:16:55.551Z,964.44
2023-03-07T09:17:55.494Z,964.49
2023-03-07T09:18:55.495Z,964.42
2023-03-07T09:19:55.486Z,964.41
2023-03-07T09:20:55.554Z,964.40
2023-03-07T09:21:55.472Z,964.48
2023-03-07T09:22:55.460Z,964.33
2023-03-07T09:23:55.436Z,964.46
2023-03-07T09:24:55.428Z,964.41
2023-03-07T09:25:55.417Z,964.33
2023-03-07T09:26:55.418Z,964.35
2023-03-07T09:27:55.397Z,964.34
2023-03-07T09:28:55.372Z,964.39
2023-03-07T09:29:55.361Z,964.37
2023-03-07T09:30:55.361Z,964.37
2023-03-07T09:31:55.339Z,964.26
2023-03-07T09:32:55.324Z,964.29
2023-03-07T09:33:55.300Z,964.27
2023-03-07T09:34:55.281Z,964.30
2023-03-07T09:35:55.311Z,964.28
2023-03-07T09:36:55.292Z,964.20
2023-03-07T09:37:55.240Z,964.31
2023-03-07T09:38:57.800Z,964.29
2023-03-07T09:39:55.225Z,964.31
2023-03-07T09:40:55.240Z,964.18
2023-03-07T09:41:55.213Z,964.21
2023-03-07T09:42:55.236Z,964.25
2023-03-07T09:43:55.181Z,964.30
2023-03-07T09:44:55.177Z,964.20
2023-03-07T09:45:55.188Z,964.14
2023-03-07T09:46:55.142Z,964.22
2023-03-07T10:03:25.680Z,963.96
2023-03-07T10:04:25.650Z,963.91
2023-03-07T10:05:25.601Z,963.90
2023-03-07T10:06:25.633Z,963.99
2023-03-07T10:07:25.579Z,963.89
2023-03-07T10:08:25.576Z,963.92
2023-03-07T10:09:25.617Z,963.96
2023-03-07T10:10:25.555Z,963.96
2023-03-07T10:11:25.560Z,963.94
2023-03-07T10:12:25.552Z,963.90
2023-03-07T10:13:25.519Z,963.93
2023-03-07T10:14:25.523Z,963.98
2023-03-07T10:15:25.470Z,963.96
2023-03-07T10:16:25.633Z,963.97
2023-03-07T10:17:25.449Z,963.89
2023-03-07T10:18:25.440Z,963.86
2023-03-07T10:19:25.439Z,963.84
2023-03-07T10:20:25.396Z,963.91
2023-03-07T10:21:25.413Z,963.86
2023-03-07T10:22:25.380Z,963.87
2023-03-07T10:23:25.391Z,963.86
2023-03-07T10:24:25.369Z,963.81
2023-03-07T10:25:25.340Z,963.80
2023-03-07T10:26:25.367Z,963.77
2023-03-07T10:27:25.310Z,963.80
2023-03-07T10:28:25.330Z,963.88
2023-03-07T10:29:25.288Z,963.79
2023-03-07T10:30:25.278Z,963.84
2023-03-07T10:31:25.345Z,963.78
2023-03-07T10:32:25.336Z,963.72
2023-03-07T10:33:25.266Z,963.75
2023-03-07T10:34:27.345Z,963.72
2023-03-07T10:35:25.217Z,963.60
2023-03-07T10:36:25.216Z,963.59
2023-03-07T10:37:25.190Z,963.63
2023-03-07T10:38:25.167Z,963.60
2023-03-07T10:39:25.157Z,963.67
2023-03-07T10:40:25.179Z,963.55
2023-03-07T10:41:25.154Z,963.57
2023-03-07T10:42:25.137Z,963.47
2023-03-07T10:43:25.112Z,963.54
2023-03-07T10:44:25.095Z,963.53
2023-03-07T10:45:25.084Z,963.46
2023-03-07T10:46:26.949Z,963.39
2023-03-07T10:47:25.050Z,963.48
2023-03-07T10:48:25.037Z,963.36
2023-03-07T10:49:25.038Z,963.36
2023-03-07T10:50:25.005Z,963.32
2023-03-07T10:51:25.033Z,963.32
2023-03-07T10:52:24.994Z,963.34
2023-03-07T10:53:24.997Z,963.31
2023-03-07T10:54:24.959Z,963.29
2023-03-07T10:55:24.955Z,963.26
2023-03-07T10:56:24.958Z,963.28
2023-03-07T10:57:24.916Z,963.19
2023-03-07T10:58:24.917Z,963.13
2023-03-07T10:59:24.887Z,963.26
2023-03-07T11:00:24.889Z,963.25
2023-03-07T11:01:24.902Z,963.12
2023-03-07T11:02:24.886Z,963.10
2023-03-07T11:03:24.847Z,963.16
2023-03-07T11:04:24.864Z,963.11
2023-03-07T11:05:24.822Z,963.09
2023-03-07T11:06:24.814Z,963.05
2023-03-07T11:07:24.816Z,963.13
2023-03-07T11:08:24.775Z,963.12
2023-03-07T11:09:24.765Z,963.12
2023-03-07T11:10:24.745Z,963.08
2023-03-07T11:11:24.741Z,963.09
2023-03-07T11:12:24.735Z,963.02
2023-03-07T11:13:24.711Z,963.00
2023-03-07T11:14:24.711Z,963.02
2023-03-07T11:15:24.710Z,963.06
2023-03-07T11:16:24.750Z,962.90
2023-03-07T11:17:24.635Z,962.92
2023-03-07T11:18:24.656Z,963.02
2023-03-07T11:19:24.625Z,963.01
2023-03-07T11:20:24.624Z,962.88
2023-03-07T11:21:24.605Z,962.90
2023-03-07T11:22:24.585Z,963.03
2023-03-07T11:23:24.588Z,962.98
2023-03-07T11:24:24.596Z,962.88
2023-03-07T11:25:24.540Z,962.93
2023-03-07T11:26:24.544Z,962.85
2023-03-07T11:27:24.526Z,962.89
2023-03-07T11:28:24.531Z,962.92
2023-03-07T11:29:24.488Z,962.89
2023-03-07T11:30:24.480Z,962.81
2023-03-07T11:31:33.162Z,962.84
2023-03-07T11:32:24.511Z,962.88
2023-03-07T11:33:24.447Z,962.87
2023-03-07T11:34:24.442Z,962.94
2023-03-07T11:35:24.415Z,962.84
2023-03-07T11:36:24.402Z,962.83
2023-03-07T11:37:24.412Z,962.88
2023-03-07T11:38:24.382Z,962.75
2023-03-07T11:39:24.367Z,962.89
2023-03-07T11:40:24.349Z,962.80
2023-03-07T11:41:24.356Z,962.77
2023-03-07T11:42:24.350Z,962.77
2023-03-07T11:43:24.301Z,962.69
2023-03-07T11:44:24.367Z,962.76
2023-03-07T11:45:24.286Z,962.72
2023-03-07T11:46:24.322Z,962.70
2023-03-07T11:47:24.254Z,962.79
2023-03-07T11:48:24.251Z,962.73
2023-03-07T11:49:24.294Z,962.81
2023-03-07T11:50:24.243Z,962.81
2023-03-07T11:51:24.221Z,962.73
2023-03-07T11:52:24.219Z,962.80
2023-03-07T11:53:24.204Z,962.77
2023-03-07T11:54:24.198Z,962.76
2023-03-07T11:55:24.164Z,962.76
2023-03-07T11:56:24.158Z,962.67
2023-03-07T11:57:24.145Z,962.63
2023-03-07T11:58:24.140Z,962.64
2023-03-07T11:59:24.117Z,962.55
2023-03-07T12:00:24.119Z,962.67
2023-03-07T12:01:24.088Z,962.59
2023-03-07T12:02:24.167Z,962.56
2023-03-07T12:03:24.082Z,962.57
2023-03-07T12:04:24.054Z,962.55
2023-03-07T12:05:24.086Z,962.53
2023-03-07T12:06:24.030Z,962.55
2023-03-07T12:07:24.030Z,962.59
2023-03-07T12:08:24.001Z,962.43
2023-03-07T12:09:23.991Z,962.55
2023-03-07T12:10:23.973Z,962.47
2023-03-07T12:11:23.970Z,962.50
2023-03-07T12:12:23.953Z,962.45
2023-03-07T12:13:23.923Z,962.43
2023-03-07T12:14:23.939Z,962.41
2023-03-07T12:15:23.939Z,962.45
2023-03-07T12:16:23.996Z,962.41
2023-03-07T12:17:23.884Z,962.39
2023-03-07T12:18:23.879Z,962.44
2023-03-07T12:19:23.875Z,962.48
2023-03-07T12:20:23.875Z,962.42
2023-03-07T12:21:23.853Z,962.46
2023-03-07T12:22:23.817Z,962.34
2023-03-07T12:23:23.816Z,962.43
2023-03-07T12:24:23.794Z,962.54
2023-03-07T12:25:23.812Z,962.44
2023-03-07T12:26:23.779Z,962.37
2023-03-07T12:27:26.301Z,962.39
2023-03-07T12:28:23.754Z,962.51
2023-03-07T12:29:23.757Z,962.41
2023-03-07T12:30:23.756Z,962.50
2023-03-07T12:31:23.738Z,962.42
2023-03-07T12:32:23.836Z,962.44
2023-03-07T12:33:26.317Z,962.43
2023-03-07T12:34:23.695Z,962.48
2023-03-07T12:35:23.743Z,962.55
2023-03-07T12:36:23.677Z,962.45
2023-03-07T12:37:23.646Z,962.46
2023-03-07T12:38:23.618Z,962.41
2023-03-07T12:39:23.639Z,962.54
2023-03-07T12:40:23.608Z,962.44
2023-03-07T12:41:23.600Z,962.48
2023-03-07T12:42:23.590Z,962.52
2023-03-07T12:43:23.551Z,962.54
2023-03-07T12:44:23.577Z,962.54
2023-03-07T12:45:25.450Z,962.46
2023-03-07T12:46:23.639Z,962.60
2023-03-07T12:47:23.529Z,962.56
2023-03-07T12:48:23.478Z,962.58
2023-03-07T12:49:23.481Z,962.68
2023-03-07T12:50:23.477Z,962.55
2023-03-07T12:51:25.672Z,962.63
2023-03-07T12:52:23.452Z,962.63
2023-03-07T12:53:23.463Z,962.56
2023-03-07T12:54:23.410Z,962.55
2023-03-07T12:55:23.402Z,962.50
2023-03-07T12:56:23.399Z,962.55